Brookside, NJ (07926)

7:57 PM EDT on March 29, 2015 (GMT -0400)
Randolph, NJ | | Change Station
CLOSE
Current Station
Personal Weather Station
Location: Randolph, NJ
Elevation: 850 ft
Nearby Weather Stations

Elev 850 ft 40.82 °N, 74.57 °W | Updated 7 minutes ago

Clear
Clear
34.3 °F
Feels Like 34 °F
N
0.0
Wind Variable Wind from North
Gusts 0.0 mph

Today
High -- | Low -- °F
--% Chance of Precip.
Yesterday
High -- | Low -- °F
Precip. -- in
6:47 AM 7:19 PM
Waxing Gibbous, 75% visible
Pressure 30.15 in
Visibility 10.0 miles
Clouds Few 25000 ft
Windchill 34 °F
Dew Point 9 °F
Humidity 34%
Rainfall 0.00 in
Snow Depth Not available.
UV 0 out of 12
Pollen 7.30 out of 12
Air Quality Not available.
Flu Activity Not available.
METAR KMMU 292345Z 21006KT 10SM FEW250 04/M13 A3015

More Conditions Fewer Conditions

Pressure 30.15 in
Visibility 10.0 miles
Clouds Few 25000 ft
Windchill 34 °F
Dew Point 9 °F
Humidity 34%
Rainfall 0.00 in
Snow Depth Not available.
UV 0 out of 12
Pollen 7.30 out of 12
Air Quality Not available.
Flu Activity Not available.
METAR KMMU 292345Z 21006KT 10SM FEW250 04/M13 A3015

More Conditions Fewer Conditions

10-Day Weather Forecast

Almanac

Astronomy

Mar. 29, 2015 Rise Set
Actual Time
Civil Twilight
Nautical Twilight
Astronomical Twilight
Moon
Length of Visible Light
Length of Day
Tomorrow will be .
, % of the Moon is Illuminated

Today's Extremes

State Highs State Lows

Community

WunderPhotos

Upload Photos

1,809,380 photos uploaded!

WunderBlogs® & News

Nearby

Air Quality

  Air Quality AQ Index Pollutant
Not available.

Snow Depth

Station Depth Elevation

Earthquake Activity

City Distance Mag. Time & Date
Minimum magnitude displayed is 2.5.

Coastal Water Temperatures

Place Temperature

Stations

Nearby Weather Stations

Station Location Temp. Windchill Dew Point Humidity Wind Precip. Elev Updated Type